Time;durP1;ratioP1;P1;durP2;ratioP2;P2;SDS_P1;SDS_P2;PMS_P1;PMS_P2;Temp;Humidity;BMP_temperature;BMP_pressure;BME280_temperature;BME280_humidity;BME280_pressure;Samples;Min_cycle;Max_cycle;Signal;HPM_P1;HPM_P2
2022/12/17 13:06:47;;;;;;;12.77;9.65;;;0.60;97.90;;;;;;5076800;28;20194;-61
2022/12/17 13:09:31;;;;;;;14.25;10.13;;;0.70;97.90;;;;;;5098425;28;20557;-61
2022/12/17 13:12:17;;;;;;;15.15;10.68;;;0.80;97.70;;;;;;5098890;28;20278;-62
2022/12/17 13:14:49;;;;;;;14.43;9.63;;;0.80;97.50;;;;;;5099081;28;20223;-63
2022/12/17 13:17:37;;;;;;;13.77;9.60;;;0.80;97.30;;;;;;5098834;28;20189;-62
2022/12/17 13:20:29;;;;;;;14.55;8.65;;;0.80;97.00;;;;;;5098103;28;20248;-63
2022/12/17 13:23:26;;;;;;;17.50;9.95;;;0.80;96.90;;;;;;5098056;28;20197;-62
2022/12/17 13:26:13;;;;;;;12.88;10.32;;;0.70;96.90;;;;;;5097212;28;20413;-63
2022/12/17 13:28:41;;;;;;;15.17;11.20;;;0.70;97.00;;;;;;5097877;28;20416;-64
2022/12/17 13:31:18;;;;;;;16.65;11.68;;;0.80;97.00;;;;;;5097726;28;20866;-62
2022/12/17 13:33:53;;;;;;;15.63;11.07;;;1.00;97.10;;;;;;5098968;28;20414;-62
2022/12/17 13:36:29;;;;;;;14.27;10.70;;;1.10;96.90;;;;;;5096780;28;20422;-61
2022/12/17 13:39:03;;;;;;;14.98;11.40;;;1.20;96.40;;;;;;5097611;28;20414;-61
2022/12/17 13:41:32;;;;;;;15.23;10.95;;;1.20;96.20;;;;;;5096220;28;20816;-61
2022/12/17 13:44:01;;;;;;;16.85;11.48;;;1.10;95.80;;;;;;5096324;28;20890;-62
2022/12/17 13:46:34;;;;;;;14.77;11.30;;;1.00;95.50;;;;;;5096365;28;20411;-60
2022/12/17 13:49:04;;;;;;;12.70;10.65;;;0.90;95.50;;;;;;5096525;28;20467;-61
2022/12/17 13:51:33;;;;;;;15.55;12.10;;;0.80;95.50;;;;;;5095902;28;20422;-62
2022/12/17 13:54:02;;;;;;;17.40;12.37;;;0.70;95.60;;;;;;5096988;28;20495;-62
2022/12/17 13:56:32;;;;;;;15.40;12.13;;;0.60;95.80;;;;;;5096383;28;20410;-61
2022/12/17 13:59:01;;;;;;;15.60;12.10;;;0.50;96.10;;;;;;5095281;28;20416;-60
2022/12/17 14:01:29;;;;;;;15.60;12.15;;;0.50;96.60;;;;;;5095254;28;20413;-62
2022/12/17 14:03:57;;;;;;;18.00;12.50;;;0.50;97.10;;;;;;5095790;28;20410;-61
2022/12/17 14:06:28;;;;;;;16.83;12.03;;;0.40;97.20;;;;;;5095018;28;20418;-62
2022/12/17 14:08:57;;;;;;;15.43;11.63;;;0.40;97.30;;;;;;5095701;28;20459;-62
2022/12/17 14:14:17;;;;;;;15.05;11.65;;;0.40;97.90;;;;;;5095444;28;20451;-63
2022/12/17 14:16:44;;;;;;;14.95;11.48;;;0.30;98.20;;;;;;5095818;28;20418;-61
2022/12/17 14:19:11;;;;;;;16.65;12.57;;;0.30;98.40;;;;;;5095274;28;20489;-62
2022/12/17 14:21:40;;;;;;;16.05;12.70;;;0.20;98.50;;;;;;5095272;28;20413;-62
2022/12/17 14:24:10;;;;;;;17.67;12.73;;;0.20;98.80;;;;;;5095393;28;20778;-61
2022/12/17 14:26:47;;;;;;;18.05;12.60;;;0.10;99.00;;;;;;5095588;28;20437;-62
2022/12/17 14:29:14;;;;;;;15.77;11.70;;;0.10;99.00;;;;;;5095565;28;20437;-61
2022/12/17 14:31:52;;;;;;;16.65;12.00;;;0.00;98.90;;;;;;5096095;28;20491;-61
2022/12/17 14:34:19;;;;;;;17.90;12.30;;;0.00;99.00;;;;;;5095291;28;20421;-63
2022/12/17 14:36:54;;;;;;;16.17;12.57;;;-0.10;99.30;;;;;;5095347;28;20426;-63
2022/12/17 14:39:25;;;;;;;18.30;12.75;;;-0.10;99.60;;;;;;5095273;28;20417;-63
2022/12/17 14:44:49;;;;;;;17.25;12.98;;;-0.20;99.90;;;;;;5095466;28;20405;-62
2022/12/17 14:47:20;;;;;;;17.33;13.10;;;-0.20;99.90;;;;;;5095772;28;20418;-62
2022/12/17 14:49:57;;;;;;;14.60;13.00;;;-0.30;99.90;;;;;;5095771;28;20471;-63
2022/12/17 14:52:35;;;;;;;18.65;13.75;;;-0.30;99.90;;;;;;5095314;28;20874;-62
2022/12/17 14:55:17;;;;;;;18.25;14.43;;;-0.40;99.90;;;;;;5095277;28;20449;-62
2022/12/17 14:57:44;;;;;;;18.80;13.35;;;-0.50;99.90;;;;;;5095194;28;20420;-63
2022/12/17 15:00:12;;;;;;;17.65;13.43;;;-0.50;99.90;;;;;;5094785;28;20410;-63
2022/12/17 15:02:41;;;;;;;17.95;14.20;;;-0.60;99.90;;;;;;5095593;28;20414;-63
2022/12/17 15:05:13;;;;;;;19.73;14.18;;;-0.60;99.90;;;;;;5095322;28;20493;-62
2022/12/17 15:07:42;;;;;;;20.30;13.70;;;-0.70;99.90;;;;;;5095203;28;20406;-63
2022/12/17 15:10:13;;;;;;;21.05;14.45;;;-0.70;99.90;;;;;;5095814;28;20421;-62
2022/12/17 15:12:41;;;;;;;18.27;13.15;;;-0.80;99.90;;;;;;5095345;28;20425;-61
2022/12/17 15:15:12;;;;;;;18.05;13.20;;;-0.80;99.90;;;;;;5095244;28;20943;-61
2022/12/17 15:17:39;;;;;;;18.75;14.20;;;-0.90;99.90;;;;;;5095391;28;20463;-62
2022/12/17 15:20:08;;;;;;;20.92;13.60;;;-0.90;99.90;;;;;;5094368;28;20414;-64
2022/12/17 15:22:36;;;;;;;21.90;15.30;;;-1.00;99.90;;;;;;5094245;28;20809;-63
2022/12/17 15:25:05;;;;;;;20.17;14.07;;;-1.00;99.90;;;;;;5094088;28;20778;-62
2022/12/17 15:27:32;;;;;;;17.17;13.57;;;-1.10;99.90;;;;;;5094343;28;20424;-62
2022/12/17 15:29:59;;;;;;;19.90;13.90;;;-1.10;99.90;;;;;;5093903;28;20738;-62
2022/12/17 15:32:26;;;;;;;20.10;14.55;;;-1.10;99.90;;;;;;5094203;28;20786;-62
2022/12/17 15:34:53;;;;;;;27.55;17.52;;;-1.20;99.90;;;;;;5094229;28;20933;-61
2022/12/17 15:37:19;;;;;;;27.17;17.60;;;-1.20;99.90;;;;;;5095201;28;20415;-63
2022/12/17 15:39:46;;;;;;;40.35;21.92;;;-1.30;99.90;;;;;;5094920;28;20418;-61
2022/12/17 15:44:59;;;;;;;20.42;14.18;;;-1.40;99.90;;;;;;5094933;28;20494;-62
2022/12/17 15:47:26;;;;;;;19.15;13.40;;;-1.40;99.90;;;;;;5094595;28;20471;-62
2022/12/17 15:49:52;;;;;;;17.73;12.50;;;-1.50;99.90;;;;;;5095922;28;20417;-63
2022/12/17 15:52:19;;;;;;;18.60;13.43;;;-1.50;99.90;;;;;;5096651;28;20459;-63
2022/12/17 15:54:48;;;;;;;18.75;13.80;;;-1.50;99.90;;;;;;5096697;28;20603;-62
2022/12/17 15:57:17;;;;;;;19.40;13.95;;;-1.50;99.90;;;;;;5099504;28;20840;-62
2022/12/17 15:59:43;;;;;;;35.45;22.75;;;-1.50;99.90;;;;;;5117197;28;20495;-63
2022/12/17 16:02:11;;;;;;;30.40;19.10;;;-1.60;99.90;;;;;;5114587;28;20404;-63
2022/12/17 16:04:39;;;;;;;24.35;17.27;;;-1.60;99.90;;;;;;5115336;28;20511;-63
2022/12/17 16:07:06;;;;;;;28.00;17.47;;;-1.60;99.90;;;;;;5115725;28;20966;-62
2022/12/17 16:09:33;;;;;;;22.50;16.80;;;-1.70;99.90;;;;;;5115205;28;20488;-61
2022/12/17 16:12:01;;;;;;;20.15;14.55;;;-1.70;99.90;;;;;;5116975;28;20418;-61
2022/12/17 16:14:29;;;;;;;21.50;17.45;;;-1.80;99.90;;;;;;5116316;28;20420;-62
2022/12/17 16:16:56;;;;;;;25.35;17.10;;;-1.80;99.90;;;;;;5113528;28;20407;-62
2022/12/17 16:19:23;;;;;;;24.30;17.05;;;-1.80;99.90;;;;;;5113041;28;20420;-64
2022/12/17 16:21:50;;;;;;;24.70;17.57;;;-1.80;99.90;;;;;;5093311;28;20402;-62
2022/12/17 16:24:17;;;;;;;24.08;16.65;;;-1.90;99.90;;;;;;5104785;28;20729;-61
2022/12/17 16:26:44;;;;;;;20.60;15.93;;;-1.90;99.90;;;;;;5111021;28;20431;-63
2022/12/17 16:29:11;;;;;;;22.80;15.93;;;-2.00;99.90;;;;;;5093284;28;20409;-61
2022/12/17 16:31:39;;;;;;;23.75;16.65;;;-1.90;99.90;;;;;;5100318;28;20420;-61
2022/12/17 16:34:08;;;;;;;26.35;18.13;;;-2.00;99.90;;;;;;5112559;28;20404;-60
2022/12/17 16:36:35;;;;;;;21.60;17.00;;;-2.00;99.90;;;;;;5112561;28;20532;-62
2022/12/17 16:39:02;;;;;;;22.70;16.58;;;-2.10;99.90;;;;;;5112936;28;20415;-62
2022/12/17 16:41:29;;;;;;;23.38;16.40;;;-2.10;99.90;;;;;;5112396;28;20785;-62
2022/12/17 16:43:56;;;;;;;23.60;16.95;;;-2.10;99.90;;;;;;5111562;28;20435;-61
2022/12/17 16:46:28;;;;;;;22.02;15.65;;;-2.10;99.90;;;;;;5112158;28;20436;-61
2022/12/17 16:48:58;;;;;;;23.67;17.30;;;-2.10;99.90;;;;;;5112001;28;20412;-61
2022/12/17 16:51:26;;;;;;;22.02;15.95;;;-2.10;99.90;;;;;;5112476;28;20428;-60
2022/12/17 16:53:54;;;;;;;26.27;15.57;;;-2.10;99.90;;;;;;5112824;28;20423;-61
2022/12/17 16:56:22;;;;;;;20.35;15.73;;;-2.20;99.90;;;;;;5146970;22;20447;-60
2022/12/17 16:59:17;;;;;;;20.80;16.03;;;-2.20;99.90;;;;;;5113752;28;20416;-58
2022/12/17 17:01:47;;;;;;;25.53;17.10;;;-2.20;99.90;;;;;;5113367;28;20425;-59
2022/12/17 17:04:17;;;;;;;23.25;17.38;;;-2.30;99.90;;;;;;5113749;28;20416;-59
2022/12/17 17:06:45;;;;;;;22.95;16.63;;;-2.30;99.90;;;;;;5111736;28;20822;-59
2022/12/17 17:09:13;;;;;;;23.20;16.58;;;-2.30;99.90;;;;;;5111011;28;20516;-58
2022/12/17 17:11:41;;;;;;;19.37;16.10;;;-2.30;99.90;;;;;;5112066;28;20419;-59
2022/12/17 17:14:08;;;;;;;21.17;16.40;;;-2.40;99.90;;;;;;5112996;28;20432;-59
2022/12/17 17:16:35;;;;;;;25.50;17.30;;;-2.40;99.90;;;;;;5115696;28;20422;-59
2022/12/17 17:19:03;;;;;;;20.40;16.13;;;-2.40;99.90;;;;;;5117937;28;20915;-60
2022/12/17 17:21:33;;;;;;;23.48;16.30;;;-2.40;99.90;;;;;;5122209;28;20396;-60
2022/12/17 17:24:02;;;;;;;22.50;16.60;;;-2.50;99.90;;;;;;5117688;28;20428;-58
2022/12/17 17:26:30;;;;;;;27.30;17.77;;;-2.50;99.90;;;;;;5123040;28;20411;-60
2022/12/17 17:28:57;;;;;;;25.02;17.05;;;-2.50;99.90;;;;;;5121864;28;20445;-60
2022/12/17 17:31:24;;;;;;;23.00;16.65;;;-2.50;99.90;;;;;;5120481;28;20427;-59
2022/12/17 17:33:52;;;;;;;25.23;17.80;;;-2.50;99.90;;;;;;5122459;28;20809;-59
2022/12/17 17:36:22;;;;;;;32.22;20.90;;;-2.50;99.90;;;;;;5121636;28;20408;-57
2022/12/17 17:38:51;;;;;;;25.50;17.80;;;-2.60;99.90;;;;;;5110024;28;20459;-60
2022/12/17 17:41:20;;;;;;;21.73;17.02;;;-2.60;99.90;;;;;;5079740;28;20463;-59
2022/12/17 17:43:51;;;;;;;22.40;17.60;;;-2.60;99.90;;;;;;5082998;28;20412;-60
2022/12/17 17:46:19;;;;;;;25.13;17.77;;;-2.60;99.90;;;;;;5098209;28;20431;-60
2022/12/17 17:48:47;;;;;;;26.38;18.15;;;-2.70;99.90;;;;;;5097553;28;20406;-60
2022/12/17 17:51:20;;;;;;;24.67;17.63;;;-2.70;99.90;;;;;;5098141;28;20418;-59
2022/12/17 17:53:48;;;;;;;27.53;17.73;;;-2.80;99.90;;;;;;5100443;28;20431;-59
2022/12/17 17:56:18;;;;;;;27.88;18.52;;;-2.80;99.90;;;;;;5115524;28;20412;-61
2022/12/17 17:58:46;;;;;;;25.85;18.98;;;-2.80;99.90;;;;;;5111021;28;20797;-59
2022/12/17 18:01:15;;;;;;;29.45;19.30;;;-2.80;99.90;;;;;;5096740;28;20456;-59
2022/12/17 18:03:42;;;;;;;30.33;19.13;;;-2.90;99.90;;;;;;5120478;28;21196;-60
2022/12/17 18:06:12;;;;;;;27.75;18.65;;;-2.90;99.90;;;;;;5115011;28;20408;-61
2022/12/17 18:08:39;;;;;;;25.30;17.77;;;-2.90;99.90;;;;;;5115478;28;20401;-61
2022/12/17 18:11:08;;;;;;;28.65;20.13;;;-2.90;99.90;;;;;;5115470;28;20422;-61
2022/12/17 18:13:55;;;;;;;25.92;19.40;;;-2.90;99.90;;;;;;5115329;28;20419;-61
2022/12/17 18:16:23;;;;;;;25.20;18.10;;;-3.00;99.90;;;;;;5112827;28;20460;-61
2022/12/17 18:18:50;;;;;;;26.73;17.95;;;-3.00;99.90;;;;;;5114954;28;20413;-60
2022/12/17 18:21:19;;;;;;;23.58;17.38;;;-3.00;99.90;;;;;;5114529;28;20877;-61
2022/12/17 18:23:46;;;;;;;27.75;18.60;;;-3.10;99.90;;;;;;5114084;28;20432;-62
2022/12/17 18:26:15;;;;;;;28.73;19.50;;;-3.10;99.90;;;;;;5115013;28;20412;-60
2022/12/17 18:28:44;;;;;;;27.42;18.80;;;-3.10;99.90;;;;;;5114448;28;20412;-62
2022/12/17 18:31:13;;;;;;;29.77;18.47;;;-3.20;99.90;;;;;;5114317;28;20431;-61
2022/12/17 18:33:41;;;;;;;27.42;18.90;;;-3.20;99.90;;;;;;5114310;28;20416;-63
2022/12/17 18:36:10;;;;;;;27.35;18.48;;;-3.20;99.90;;;;;;5114239;28;20888;-63
2022/12/17 18:38:38;;;;;;;26.85;18.42;;;-3.20;99.90;;;;;;5104841;28;20430;-62
2022/12/17 18:43:52;;;;;;;27.90;18.73;;;-3.30;99.90;;;;;;5097364;28;20943;-61
2022/12/17 18:46:18;;;;;;;26.92;17.60;;;-3.30;99.90;;;;;;5115855;28;20888;-61
2022/12/17 18:48:45;;;;;;;27.00;18.10;;;-3.30;99.90;;;;;;5112573;28;20560;-62
2022/12/17 18:51:12;;;;;;;27.80;18.05;;;-3.30;99.90;;;;;;5113611;28;20435;-60
2022/12/17 18:53:39;;;;;;;27.80;18.65;;;-3.40;99.90;;;;;;5111184;28;20497;-61
2022/12/17 18:56:09;;;;;;;27.33;17.85;;;-3.40;99.90;;;;;;5099961;28;20900;-60
2022/12/17 18:58:36;;;;;;;27.42;18.33;;;-3.40;99.90;;;;;;5114076;28;20416;-58
2022/12/17 19:01:05;;;;;;;26.60;17.58;;;-3.40;99.90;;;;;;5113946;28;20408;-58
2022/12/17 19:03:32;;;;;;;25.08;17.98;;;-3.40;99.90;;;;;;5117636;28;20907;-57
2022/12/17 19:05:59;;;;;;;27.50;17.85;;;-3.40;99.90;;;;;;5114228;28;20459;-59
2022/12/17 19:08:26;;;;;;;25.37;17.27;;;-3.50;99.90;;;;;;5113990;28;20412;-58
2022/12/17 19:10:53;;;;;;;27.67;17.38;;;-3.50;99.90;;;;;;5112993;28;20767;-58
2022/12/17 19:13:19;;;;;;;24.97;16.70;;;-3.50;99.90;;;;;;5113535;28;20420;-58
2022/12/17 19:15:46;;;;;;;26.30;17.45;;;-3.50;99.90;;;;;;5114186;28;20840;-58
2022/12/17 19:18:14;;;;;;;28.40;18.87;;;-3.50;99.90;;;;;;5112046;28;20856;-58
2022/12/17 19:20:41;;;;;;;25.20;17.98;;;-3.50;99.90;;;;;;5113706;28;20408;-58
2022/12/17 19:23:08;;;;;;;29.73;18.00;;;-3.50;99.90;;;;;;5113756;28;20748;-59
2022/12/17 19:25:35;;;;;;;26.10;17.55;;;-3.50;99.90;;;;;;5113461;28;20764;-59
2022/12/17 19:28:01;;;;;;;25.88;17.90;;;-3.60;99.90;;;;;;5112803;28;20784;-59
2022/12/17 19:30:28;;;;;;;26.58;17.90;;;-3.60;99.90;;;;;;5112940;28;20902;-59
2022/12/17 19:32:55;;;;;;;29.33;18.80;;;-3.60;99.90;;;;;;5113426;28;20424;-59
2022/12/17 19:35:23;;;;;;;32.97;19.45;;;-3.70;99.90;;;;;;5114702;28;20419;-60
2022/12/17 19:37:51;;;;;;;30.08;18.85;;;-3.70;99.90;;;;;;5111906;28;20428;-60
2022/12/17 19:40:18;;;;;;;28.40;17.13;;;-3.70;99.90;;;;;;5112239;28;20510;-60
2022/12/17 19:42:45;;;;;;;23.45;16.90;;;-3.70;99.90;;;;;;5113570;28;20420;-60
2022/12/17 19:45:11;;;;;;;24.42;16.27;;;-3.70;99.90;;;;;;5120555;28;20404;-59
2022/12/17 19:47:38;;;;;;;23.17;16.10;;;-3.70;99.90;;;;;;5113330;28;20408;-60
2022/12/17 19:50:06;;;;;;;23.20;16.20;;;-3.70;99.90;;;;;;5113232;28;20404;-60
2022/12/17 19:52:34;;;;;;;25.63;16.80;;;-3.70;99.90;;;;;;5112607;28;20938;-58
2022/12/17 19:55:01;;;;;;;23.45;16.65;;;-3.80;99.90;;;;;;5112976;27;20415;-59
2022/12/17 19:57:28;;;;;;;22.75;15.70;;;-3.80;99.90;;;;;;5099099;28;20448;-58
2022/12/17 19:59:54;;;;;;;22.70;16.43;;;-3.80;99.90;;;;;;5093063;28;20413;-58
2022/12/17 20:02:21;;;;;;;23.45;17.13;;;-3.80;99.90;;;;;;5092089;28;20414;-59
2022/12/17 20:04:48;;;;;;;22.70;16.57;;;-3.80;99.90;;;;;;5092083;28;20418;-59
2022/12/17 20:07:15;;;;;;;24.30;16.35;;;-3.80;99.90;;;;;;5107264;28;20428;-59
2022/12/17 20:09:44;;;;;;;24.52;16.02;;;-3.90;99.90;;;;;;5112525;28;20411;-59
2022/12/17 20:12:11;;;;;;;25.73;16.33;;;-3.90;99.90;;;;;;5113415;28;20507;-59
2022/12/17 20:14:37;;;;;;;24.73;16.83;;;-3.90;99.90;;;;;;5114329;28;20768;-59
2022/12/17 20:17:04;;;;;;;22.08;16.45;;;-4.00;99.90;;;;;;5113914;28;20424;-58
2022/12/17 20:19:33;;;;;;;27.10;16.60;;;-4.00;99.90;;;;;;5114170;28;20412;-58
2022/12/17 20:22:03;;;;;;;24.42;16.35;;;-4.00;99.90;;;;;;5113430;28;20965;-59
2022/12/17 20:24:30;;;;;;;25.25;16.70;;;-4.00;99.90;;;;;;5113693;28;20452;-60
2022/12/17 20:26:58;;;;;;;24.73;16.38;;;-4.00;99.90;;;;;;5112349;28;20428;-59
2022/12/17 20:29:26;;;;;;;25.65;16.25;;;-4.00;99.90;;;;;;5103413;28;20426;-59
2022/12/17 20:31:53;;;;;;;21.77;15.00;;;-4.10;99.90;;;;;;5091652;28;20428;-60
2022/12/17 20:34:24;;;;;;;26.25;16.67;;;-4.10;99.90;;;;;;5092720;28;20417;-59
2022/12/17 20:36:51;;;;;;;22.05;16.17;;;-4.00;99.90;;;;;;5091955;28;20881;-59
2022/12/17 20:39:18;;;;;;;22.53;15.50;;;-4.00;99.90;;;;;;5091592;28;20417;-59
2022/12/17 20:41:45;;;;;;;21.67;14.93;;;-4.00;99.90;;;;;;5091762;28;20421;-59
2022/12/17 20:44:14;;;;;;;24.73;16.63;;;-4.00;99.90;;;;;;5091581;28;20902;-59
2022/12/17 20:46:42;;;;;;;25.85;16.60;;;-4.00;99.90;;;;;;5089890;28;20425;-59
2022/12/17 20:49:11;;;;;;;27.15;16.90;;;-4.00;99.90;;;;;;5072556;28;20423;-59
2022/12/17 20:51:38;;;;;;;23.40;15.10;;;-4.00;99.90;;;;;;5077759;28;20438;-59
2022/12/17 20:54:07;;;;;;;24.23;15.65;;;-4.00;99.90;;;;;;5095341;28;20405;-60
2022/12/17 20:56:35;;;;;;;19.35;13.45;;;-4.00;99.90;;;;;;5094804;28;20467;-59
2022/12/17 20:59:04;;;;;;;20.70;13.60;;;-4.00;99.90;;;;;;5095398;28;20854;-59
2022/12/17 21:01:35;;;;;;;18.77;13.07;;;-4.00;99.90;;;;;;5097351;28;20424;-59
2022/12/17 21:04:05;;;;;;;18.90;13.00;;;-3.90;99.90;;;;;;5095203;28;20421;-60
2022/12/17 21:06:36;;;;;;;20.30;13.82;;;-3.90;99.90;;;;;;5095322;28;20450;-59
2022/12/17 21:09:04;;;;;;;17.10;12.30;;;-3.90;99.90;;;;;;5095342;28;20478;-60
2022/12/17 21:11:33;;;;;;;17.67;13.00;;;-4.00;99.90;;;;;;5096265;28;20417;-59
2022/12/17 21:14:02;;;;;;;24.33;15.93;;;-4.00;99.90;;;;;;5095155;28;20457;-59
2022/12/17 21:16:31;;;;;;;17.75;12.93;;;-4.00;99.90;;;;;;5095821;28;20805;-59
2022/12/17 21:19:00;;;;;;;17.75;11.70;;;-4.00;99.90;;;;;;5096098;28;20421;-60
2022/12/17 21:21:29;;;;;;;16.38;12.00;;;-4.00;99.90;;;;;;5095364;28;20489;-60
2022/12/17 21:23:57;;;;;;;19.23;13.13;;;-4.00;99.90;;;;;;5094828;28;20410;-60
2022/12/17 21:26:26;;;;;;;20.40;13.10;;;-4.00;99.90;;;;;;5095217;28;20405;-60
2022/12/17 21:28:58;;;;;;;17.17;12.23;;;-4.00;99.90;;;;;;5095286;28;20421;-59
2022/12/17 21:31:27;;;;;;;19.90;12.85;;;-4.00;99.90;;;;;;5096240;28;20484;-60
2022/12/17 21:33:55;;;;;;;17.25;12.02;;;-4.00;99.90;;;;;;5095051;28;20417;-60
2022/12/17 21:36:24;;;;;;;18.13;12.73;;;-4.00;99.90;;;;;;5095788;28;20418;-60
2022/12/17 21:38:52;;;;;;;17.25;12.63;;;-4.00;99.90;;;;;;5095040;28;20901;-60
2022/12/17 21:41:21;;;;;;;18.75;13.00;;;-4.10;99.90;;;;;;5095020;28;20413;-60
2022/12/17 21:43:52;;;;;;;19.17;12.98;;;-4.10;99.90;;;;;;5094846;28;20410;-60
2022/12/17 21:46:19;;;;;;;20.45;13.20;;;-4.10;99.90;;;;;;5094474;28;20410;-59
2022/12/17 21:48:46;;;;;;;20.38;14.00;;;-4.10;99.90;;;;;;5094342;28;20452;-60
2022/12/17 21:51:13;;;;;;;18.30;13.25;;;-4.10;99.90;;;;;;5094572;28;20410;-59
2022/12/17 21:53:42;;;;;;;17.15;12.50;;;-4.10;99.90;;;;;;5094347;28;20422;-59
2022/12/17 21:56:11;;;;;;;22.08;13.77;;;-4.10;99.90;;;;;;5094123;28;20420;-59
2022/12/17 21:58:38;;;;;;;17.83;12.65;;;-4.10;99.90;;;;;;5094372;28;20413;-60
2022/12/17 22:01:09;;;;;;;17.48;12.80;;;-4.10;99.90;;;;;;5094566;28;20410;-58
2022/12/17 22:03:36;;;;;;;18.80;12.25;;;-4.10;99.90;;;;;;5094731;28;20754;-60
2022/12/17 22:06:06;;;;;;;19.33;13.52;;;-4.10;99.90;;;;;;5094028;28;20410;-59
2022/12/17 22:08:33;;;;;;;18.52;13.02;;;-4.10;99.90;;;;;;5094368;28;20464;-60
2022/12/17 22:11:01;;;;;;;19.85;12.70;;;-4.10;99.90;;;;;;5094598;28;20413;-59
2022/12/17 22:16:13;;;;;;;21.05;13.18;;;-4.10;99.90;;;;;;5094306;28;20746;-60
2022/12/17 22:18:41;;;;;;;19.40;13.27;;;-4.10;99.90;;;;;;5094179;28;20436;-60
2022/12/17 22:21:08;;;;;;;17.55;12.25;;;-4.20;99.90;;;;;;5094194;28;20453;-59
2022/12/17 22:23:35;;;;;;;20.20;13.10;;;-4.20;99.90;;;;;;5094674;28;20416;-60
2022/12/17 22:26:08;;;;;;;19.58;13.70;;;-4.20;99.90;;;;;;5093997;28;20414;-60
2022/12/17 22:28:35;;;;;;;19.08;13.27;;;-4.30;99.90;;;;;;5093479;28;20916;-59
2022/12/17 22:33:49;;;;;;;17.77;13.00;;;-4.30;99.90;;;;;;5093566;28;20421;-62
2022/12/17 22:36:15;;;;;;;21.92;13.60;;;-4.30;99.90;;;;;;5093497;28;20489;-60
2022/12/17 22:38:42;;;;;;;19.13;13.60;;;-4.30;99.90;;;;;;5093454;28;20413;-58
2022/12/17 22:43:28;;;;;;;20.15;13.80;;;-4.40;99.90;;;;;;5093652;28;20414;-60
2022/12/17 22:43:59;;;;;;;19.98;13.48;;;-4.40;99.90;;;;;;5096180;28;20410;-59
2022/12/17 22:46:26;;;;;;;21.13;14.13;;;-4.40;99.90;;;;;;5096828;28;20489;-59
2022/12/17 22:48:52;;;;;;;22.95;14.35;;;-4.50;99.90;;;;;;5097071;28;20410;-59
2022/12/17 22:51:19;;;;;;;24.57;14.37;;;-4.50;99.90;;;;;;5099654;28;20414;-59
2022/12/17 22:53:46;;;;;;;18.30;13.60;;;-4.50;99.90;;;;;;5100804;28;20927;-59
2022/12/17 22:56:14;;;;;;;19.50;14.10;;;-4.60;99.90;;;;;;5126927;22;20780;-58
2022/12/17 22:58:41;;;;;;;20.92;13.68;;;-4.60;99.90;;;;;;5116036;28;20416;-57
2022/12/17 23:01:08;;;;;;;20.20;13.50;;;-4.60;99.90;;;;;;5118180;28;20772;-59
2022/12/17 23:03:35;;;;;;;21.17;13.63;;;;;;;;;;5125227;28;20426;-59
2022/12/17 23:06:10;;;;;;;19.67;14.10;;;-4.60;99.90;;;;;;5124447;28;20411;-58
2022/12/17 23:08:37;;;;;;;19.23;13.33;;;-4.60;99.90;;;;;;5125648;28;20454;-58
2022/12/17 23:11:08;;;;;;;18.95;13.73;;;-4.60;99.90;;;;;;5123417;28;20865;-58
2022/12/17 23:13:36;;;;;;;20.90;14.23;;;-4.60;99.90;;;;;;5122498;28;20463;-58
2022/12/17 23:16:03;;;;;;;19.48;14.00;;;-4.60;99.90;;;;;;5113256;28;20412;-58
2022/12/17 23:18:31;;;;;;;19.10;12.68;;;-4.60;99.90;;;;;;5114243;28;20431;-59
2022/12/17 23:21:05;;;;;;;19.33;12.90;;;-4.60;99.90;;;;;;5114266;28;20416;-57
2022/12/17 23:23:32;;;;;;;17.42;12.55;;;-4.60;99.90;;;;;;5114103;28;20419;-59
2022/12/17 23:26:05;;;;;;;16.83;12.57;;;-4.60;99.90;;;;;;5113475;28;20416;-58
2022/12/17 23:28:31;;;;;;;17.27;12.25;;;-4.60;99.90;;;;;;5113662;28;20411;-59
2022/12/17 23:31:06;;;;;;;17.98;12.10;;;-4.60;99.90;;;;;;5113401;28;20419;-59
2022/12/17 23:33:32;;;;;;;20.40;12.20;;;-4.60;99.90;;;;;;5114135;28;20428;-58
2022/12/17 23:36:03;;;;;;;16.73;11.45;;;-4.60;99.90;;;;;;5113711;28;20887;-57
2022/12/17 23:38:30;;;;;;;22.38;13.70;;;-4.60;99.90;;;;;;5114077;28;20477;-57
2022/12/17 23:41:02;;;;;;;18.05;12.48;;;-4.60;99.90;;;;;;5113748;28;20418;-57
2022/12/17 23:43:29;;;;;;;16.43;11.40;;;-4.60;99.90;;;;;;5113183;28;20411;-58
2022/12/17 23:45:56;;;;;;;16.55;11.85;;;-4.60;99.90;;;;;;5113016;28;20408;-57
2022/12/17 23:48:24;;;;;;;16.80;12.10;;;-4.60;99.90;;;;;;5113139;28;20416;-58
2022/12/17 23:50:51;;;;;;;16.75;11.98;;;-4.70;99.90;;;;;;5113181;28;20404;-58
2022/12/17 23:53:18;;;;;;;15.15;11.30;;;-4.70;99.90;;;;;;5113640;28;20420;-57
2022/12/17 23:55:44;;;;;;;17.00;11.50;;;-4.70;99.90;;;;;;5112870;28;20424;-57
2022/12/17 23:58:11;;;;;;;20.30;12.40;;;-4.70;99.90;;;;;;5113013;28;20415;-58
